createdAt,value
2018-09-14T03:22:59.188Z,6.60
2018-09-14T03:25:28.488Z,7.70
2018-09-14T03:27:57.844Z,7.05
2018-09-14T03:30:28.218Z,7.20
2018-09-14T06:31:23.382Z,24.50
2018-09-14T06:33:53.287Z,22.05
2018-09-14T06:36:22.902Z,18.85
2018-09-14T06:38:54.582Z,17.90
2018-09-14T06:41:23.951Z,15.70
2018-09-14T06:43:53.798Z,15.05
2018-09-14T08:00:46.291Z,8.50
2018-09-14T08:25:33.176Z,10.60
2018-09-14T08:28:02.705Z,9.60
2018-09-14T08:30:32.714Z,9.87
2018-09-14T08:33:02.339Z,9.65
2018-09-14T08:35:31.999Z,9.85
2018-09-14T08:42:59.319Z,9.40
2018-09-14T08:45:28.726Z,9.00
2018-09-14T08:47:58.392Z,9.50
2018-09-14T08:50:27.712Z,9.33
2018-09-14T08:57:54.315Z,9.70
2018-09-14T09:00:25.776Z,9.20
2018-09-14T09:02:55.603Z,9.60
2018-09-14T09:05:25.753Z,9.73
2018-09-14T09:07:55.258Z,9.45
2018-09-14T09:10:24.601Z,9.37
2018-09-14T09:12:54.135Z,8.73
2018-09-14T09:15:23.596Z,8.95
2018-09-14T09:17:53.470Z,10.15
2018-09-14T09:20:24.122Z,9.40
2018-09-14T09:22:54.342Z,9.90
2018-09-14T09:25:23.926Z,9.20
2018-09-14T09:27:53.303Z,8.80
2018-09-14T09:30:22.782Z,9.30
2018-09-14T09:32:52.142Z,9.25
2018-09-14T09:35:21.602Z,9.55
2018-09-14T09:37:52.073Z,7.80
2018-09-14T09:40:21.726Z,8.20
2018-09-14T09:42:51.036Z,8.10
2018-09-14T09:45:20.324Z,7.77
2018-09-14T09:47:50.092Z,8.10
2018-09-14T09:50:19.424Z,7.50
2018-09-14T09:52:48.993Z,7.35
2018-09-14T09:55:38.136Z,7.70
2018-09-14T09:58:08.381Z,8.10
2018-09-14T10:00:42.814Z,7.70
2018-09-14T10:03:17.096Z,8.17
2018-09-14T10:05:51.765Z,7.27
2018-09-14T10:08:21.990Z,5.50
2018-09-14T10:10:51.511Z,5.10
2018-09-14T10:13:21.055Z,5.07
2018-09-14T10:15:50.434Z,5.87
2018-09-14T10:18:19.822Z,6.37
2018-09-14T10:20:49.507Z,6.13
2018-09-14T10:23:19.182Z,5.70
2018-09-14T10:25:49.544Z,6.03
2018-09-14T10:28:18.962Z,6.07
2018-09-14T10:30:48.392Z,5.75
2018-09-14T10:33:18.603Z,5.93
2018-09-14T10:35:48.166Z,5.55
2018-09-14T10:38:17.930Z,4.80
2018-09-14T10:40:47.735Z,5.00
2018-09-14T10:43:17.335Z,4.83
2018-09-14T10:45:47.583Z,3.90
2018-09-14T10:48:17.692Z,4.17
2018-09-14T10:50:47.512Z,4.55
2018-09-14T10:53:17.779Z,4.00
2018-09-14T10:55:47.265Z,3.47
2018-09-14T11:00:47.940Z,2.50
2018-09-14T11:03:17.429Z,2.40
2018-09-14T11:05:46.889Z,3.00
2018-09-14T11:08:16.197Z,3.55
2018-09-14T11:10:45.869Z,3.30
2018-09-14T11:13:15.360Z,3.70
2018-09-14T11:15:45.331Z,3.87
2018-09-14T11:18:14.750Z,4.60
2018-09-14T11:20:44.953Z,3.50
2018-09-14T11:23:14.319Z,2.90
2018-09-14T11:25:43.843Z,3.20
2018-09-14T11:28:13.475Z,3.50
2018-09-14T11:30:43.790Z,3.40
2018-09-14T11:33:13.453Z,3.20
2018-09-14T11:35:42.972Z,2.90
2018-09-14T11:38:12.409Z,2.80
2018-09-14T11:40:42.887Z,2.83
2018-09-14T11:43:12.398Z,3.00
2018-09-14T11:45:42.681Z,2.60
2018-09-14T11:48:12.229Z,2.63
2018-09-14T11:50:43.218Z,2.40
2018-09-14T11:53:12.868Z,2.40
2018-09-14T11:55:42.073Z,2.07
2018-09-14T11:58:12.525Z,2.20
2018-09-14T12:00:41.858Z,2.03
2018-09-14T12:03:11.859Z,2.20
2018-09-14T12:05:41.255Z,2.35
2018-09-14T12:08:11.636Z,2.43
2018-09-14T12:10:41.118Z,2.33
2018-09-14T12:13:10.590Z,2.53
2018-09-14T12:15:40.066Z,3.20
2018-09-14T12:18:09.641Z,2.67
2018-09-14T12:20:39.263Z,2.65
2018-09-14T12:23:09.077Z,2.75
2018-09-14T12:25:39.166Z,2.90
2018-09-14T12:28:09.664Z,2.90
2018-09-14T12:30:39.528Z,2.90
2018-09-14T12:33:10.055Z,2.85
2018-09-14T12:35:39.541Z,2.60
2018-09-14T12:38:08.948Z,2.30
2018-09-14T12:40:39.214Z,2.65
2018-09-14T12:43:08.494Z,2.10
2018-09-14T12:45:38.567Z,2.00
2018-09-14T12:48:07.931Z,1.75
2018-09-14T12:50:38.260Z,2.00
2018-09-14T12:53:07.952Z,1.80
2018-09-14T12:55:37.290Z,1.90
2018-09-14T12:58:06.590Z,2.10
2018-09-14T13:00:36.517Z,1.80
2018-09-14T13:03:05.964Z,2.07
2018-09-14T13:05:36.069Z,2.27
2018-09-14T13:08:06.614Z,1.80
2018-09-14T13:10:36.650Z,2.00
2018-09-14T13:13:07.325Z,1.90
2018-09-14T13:15:37.532Z,2.15
2018-09-14T13:18:07.039Z,2.20
2018-09-14T13:20:36.436Z,2.90
2018-09-14T13:23:05.723Z,2.30
2018-09-14T13:25:35.956Z,2.30
2018-09-14T13:28:06.639Z,2.07
2018-09-14T13:30:36.378Z,1.95
2018-09-14T13:33:06.407Z,2.27
2018-09-14T13:35:35.858Z,1.80
2018-09-14T13:38:05.479Z,2.17
2018-09-14T13:40:35.390Z,2.40
2018-09-14T13:43:06.542Z,2.47
2018-09-14T13:45:35.830Z,2.50
2018-09-14T13:48:05.348Z,2.10
2018-09-14T13:50:34.855Z,2.20
2018-09-14T13:53:04.983Z,1.97
2018-09-14T13:55:35.102Z,2.00
2018-09-14T13:58:04.540Z,1.70
2018-09-14T14:00:33.936Z,1.80
2018-09-14T14:03:03.414Z,1.90
2018-09-14T14:05:33.033Z,1.87
2018-09-14T14:08:03.329Z,1.97
2018-09-14T14:10:32.695Z,1.80
2018-09-14T14:13:01.994Z,2.00
2018-09-14T14:15:31.479Z,1.80
2018-09-14T14:18:01.095Z,1.80
2018-09-14T14:20:30.660Z,1.83
2018-09-14T14:23:00.406Z,2.10
2018-09-14T14:25:29.793Z,1.80
2018-09-14T14:28:00.477Z,2.00
2018-09-14T14:30:30.483Z,1.87
2018-09-14T14:33:00.084Z,2.20
2018-09-14T14:35:30.379Z,1.80
2018-09-14T14:38:00.736Z,2.00
2018-09-14T14:40:30.260Z,1.90
2018-09-14T14:42:59.926Z,2.07
2018-09-14T14:45:29.594Z,1.80
2018-09-14T14:47:58.993Z,2.00
2018-09-14T14:50:28.526Z,2.00
2018-09-14T14:52:58.071Z,1.97
2018-09-14T14:55:27.608Z,1.60
2018-09-14T14:57:56.974Z,1.60
2018-09-14T15:00:26.601Z,1.63
2018-09-14T15:02:56.549Z,1.60
2018-09-14T15:05:25.838Z,1.47
2018-09-14T15:07:55.914Z,1.50
2018-09-14T15:10:25.342Z,1.60
2018-09-14T15:12:54.624Z,1.43
2018-09-14T15:15:23.954Z,1.45
2018-09-14T15:17:53.441Z,1.20
2018-09-14T15:20:23.670Z,1.33
2018-09-14T15:22:53.220Z,1.20
2018-09-14T15:25:22.639Z,1.17
2018-09-14T15:27:52.144Z,1.10
2018-09-14T15:30:21.793Z,1.13
2018-09-14T15:32:52.228Z,1.10
2018-09-14T15:35:22.661Z,1.50
2018-09-14T15:37:52.551Z,1.10
2018-09-14T15:40:22.483Z,0.85
2018-09-14T15:42:52.161Z,0.97
2018-09-14T15:45:22.586Z,1.10
2018-09-14T15:47:51.913Z,1.10
2018-09-14T15:50:21.433Z,0.90
2018-09-14T15:52:51.041Z,1.10
2018-09-14T15:55:22.083Z,1.17
2018-09-14T15:57:51.680Z,0.70
2018-09-14T16:00:21.959Z,1.20
2018-09-14T16:02:53.255Z,1.13
2018-09-14T16:05:23.511Z,1.00
2018-09-14T16:07:53.326Z,0.93
2018-09-14T16:10:22.873Z,0.95
2018-09-14T16:12:52.151Z,0.80
2018-09-14T16:15:22.245Z,1.20
2018-09-14T16:17:52.192Z,0.90
2018-09-14T16:20:21.879Z,1.20
2018-09-14T16:22:52.097Z,1.23
2018-09-14T16:25:21.530Z,0.83
2018-09-14T16:27:51.587Z,1.20
2018-09-14T16:30:21.069Z,1.20
2018-09-14T16:32:51.205Z,1.20
2018-09-14T16:35:21.269Z,1.03
2018-09-14T16:37:51.250Z,1.20
2018-09-14T16:40:20.545Z,1.50
2018-09-14T16:42:50.185Z,1.17
2018-09-14T16:45:20.139Z,1.00
2018-09-14T16:47:49.730Z,1.00
2018-09-14T16:50:19.207Z,1.13
2018-09-14T16:52:48.766Z,1.27
2018-09-14T16:55:18.869Z,1.30
2018-09-14T16:57:48.261Z,1.40
2018-09-14T17:00:18.514Z,1.50
2018-09-14T17:02:48.006Z,1.37
2018-09-14T17:05:17.282Z,1.00
2018-09-14T17:07:46.810Z,1.13
2018-09-14T17:10:16.424Z,1.33
2018-09-14T17:12:46.528Z,1.17
2018-09-14T17:15:15.954Z,1.30
2018-09-14T17:17:46.143Z,1.10
2018-09-14T17:20:15.572Z,1.00
2018-09-14T17:22:45.337Z,1.00
2018-09-14T17:25:15.740Z,1.20
2018-09-14T17:27:45.123Z,1.30
2018-09-14T17:30:14.414Z,1.17
2018-09-14T17:32:43.722Z,1.00
2018-09-14T17:35:13.508Z,1.40
2018-09-14T17:37:43.406Z,1.40
2018-09-14T17:40:12.846Z,1.13
2018-09-14T17:42:42.336Z,1.30
2018-09-14T17:45:11.912Z,1.30
2018-09-14T17:47:41.356Z,1.10
2018-09-14T17:50:11.197Z,1.30
2018-09-14T17:52:40.678Z,1.07
2018-09-14T17:55:10.505Z,1.10
2018-09-14T17:57:39.967Z,1.15
2018-09-14T18:00:10.000Z,1.10
2018-09-14T18:02:39.870Z,1.20
2018-09-14T18:05:09.295Z,1.20
2018-09-14T18:07:38.654Z,1.30
2018-09-14T18:10:08.534Z,1.20
2018-09-14T18:12:38.470Z,1.37
2018-09-14T18:15:08.085Z,1.30
2018-09-14T18:17:38.252Z,1.63
2018-09-14T18:20:08.009Z,1.70
2018-09-14T18:22:38.226Z,1.80
2018-09-14T18:25:08.004Z,1.60
2018-09-14T18:27:38.334Z,1.87
2018-09-14T18:30:11.171Z,1.70
2018-09-14T18:32:41.296Z,1.50
2018-09-14T18:35:10.914Z,1.40
2018-09-14T18:37:40.619Z,1.43
2018-09-14T18:40:10.117Z,1.80
2018-09-14T18:42:40.003Z,1.43
2018-09-14T18:45:09.635Z,1.30
2018-09-14T18:47:38.931Z,1.40
2018-09-14T18:50:08.545Z,1.77
2018-09-14T18:52:38.633Z,1.50
2018-09-14T18:55:09.465Z,1.60
2018-09-14T18:57:38.752Z,1.70
2018-09-14T19:00:08.451Z,1.75
2018-09-14T19:02:37.855Z,1.50
2018-09-14T19:05:07.487Z,1.50
2018-09-14T19:07:36.960Z,1.40
2018-09-14T19:10:06.341Z,1.40
2018-09-14T19:12:35.797Z,1.30
2018-09-14T19:15:05.711Z,1.40
2018-09-14T19:17:35.402Z,1.17
2018-09-14T19:20:04.879Z,1.40
2018-09-14T19:22:34.492Z,1.50
2018-09-14T19:25:03.801Z,1.40
2018-09-14T19:27:33.203Z,1.40
2018-09-14T19:30:02.624Z,1.50
2018-09-14T19:32:32.000Z,1.70
2018-09-14T19:39:59.126Z,2.00
2018-09-14T19:42:28.898Z,2.00
2018-09-14T19:44:58.246Z,2.20
2018-09-14T20:34:32.763Z,1.90
2018-09-14T20:39:30.846Z,2.60
2018-09-14T20:44:28.672Z,1.95
2018-09-14T20:49:26.703Z,2.50
2018-09-14T21:14:14.638Z,2.50
2018-09-14T21:24:09.830Z,2.60
2018-09-14T21:31:37.626Z,2.60
2018-09-14T21:34:07.833Z,2.80
2018-09-14T21:51:30.352Z,2.30
2018-09-14T21:53:59.684Z,2.43
2018-09-14T21:56:29.148Z,3.20
2018-09-14T21:58:58.588Z,3.00
2018-09-14T22:01:29.289Z,2.60
2018-09-14T22:03:59.989Z,2.40
2018-09-14T22:06:29.362Z,2.70
2018-09-14T22:08:58.968Z,2.60
2018-09-14T22:11:28.756Z,2.60
2018-09-14T22:18:55.038Z,2.85
2018-09-14T22:21:24.869Z,3.10
2018-09-14T22:31:21.138Z,3.10
2018-09-14T23:20:59.995Z,4.00
